Terminal Aerodrome Forecast
Issued by NWS Albany, NY

Home | Current Version | Previous Version | Text Only | Print | Product List | Glossary On
Versions: 1 2 3 4 5 6 7 8 9 10 11 12 13 14 15 16 17 18 19 20 21
000
FTUS41 KALY 211300 AAA
TAFALB
TAF AMD
KALB 211310Z 2113/2212 VRB02KT 6SM -SHRA OVC050
      TEMPO 2114/2116 2SM RA BR SCT015 OVC030
     FM211600 VRB04KT 6SM -SHRA BR SCT030 OVC040
     FM220000 01005KT 6SM -SHRA BR SCT020 OVC030
     FM220600 36006KT 5SM BR VCSH OVC020=

USA.gov is the U.S. government's official web portal to all federal, state and local government web resources and services.